EGDY - Yeovilton
Distance from station: E 5mi, 14km
Updated: 12/16/2017 11:50pm
Mist, Mostly cloudy
Mist, Mostly cloudy
 Wind from ESE
Wind: ESE 2 mph , 4 km/h
Temperature: 32°F , 0°C
Dew Point: 32°F , 0°C
Humidity: 100%
Barometer: 30.24 inHg , 1024 hPa
Summary: Mist
Clouds: Mostly Cloudy
Visibility: 4 miles , 7 km
Cloud details: Few Clouds 2200 ft
Mostly Cloudy 6000 ft
2017/12/17 07:50 EGDY 170750Z AUTO 12002KT 7000 BR FEW022/// BKN060/// 00/00 Q1024